createdAt,value
2022-10-29T00:00:15.721Z,8.43
2022-10-29T00:02:42.392Z,8.34
2022-10-29T00:05:09.300Z,8.29
2022-10-29T00:07:35.963Z,8.23
2022-10-29T00:10:02.603Z,8.21
2022-10-29T00:12:29.355Z,8.25
2022-10-29T00:14:55.975Z,8.26
2022-10-29T00:17:22.584Z,8.19
2022-10-29T00:19:49.184Z,8.10
2022-10-29T00:22:15.820Z,8.07
2022-10-29T00:24:42.479Z,7.92
2022-10-29T00:27:09.107Z,7.89
2022-10-29T00:29:35.827Z,7.87
2022-10-29T00:32:02.406Z,7.85
2022-10-29T00:34:29.192Z,7.85
2022-10-29T00:36:55.841Z,7.88
2022-10-29T00:39:22.527Z,7.85
2022-10-29T00:41:49.149Z,7.88
2022-10-29T00:44:15.928Z,7.85
2022-10-29T00:46:50.262Z,7.73
2022-10-29T00:49:17.043Z,7.70
2022-10-29T00:51:43.654Z,7.70
2022-10-29T00:54:13.102Z,7.68
2022-10-29T00:56:57.946Z,7.60
2022-10-29T00:59:24.706Z,7.55
2022-10-29T01:01:51.378Z,7.61
2022-10-29T01:04:18.327Z,7.61
2022-10-29T01:06:44.951Z,7.68
2022-10-29T01:09:11.523Z,7.75
2022-10-29T01:11:44.273Z,7.86
2022-10-29T01:14:29.497Z,8.01
2022-10-29T01:17:03.516Z,7.88
2022-10-29T01:19:49.426Z,7.77
2022-10-29T01:22:20.006Z,7.83
2022-10-29T01:25:05.348Z,7.82
2022-10-29T01:27:49.116Z,7.88
2022-10-29T01:30:42.618Z,7.86
2022-10-29T01:33:22.460Z,7.76
2022-10-29T01:36:14.419Z,7.67
2022-10-29T01:39:05.091Z,7.56
2022-10-29T01:41:43.707Z,7.57
2022-10-29T01:45:01.052Z,7.53
2022-10-29T01:47:30.013Z,7.59
2022-10-29T01:50:03.712Z,7.51
2022-10-29T01:52:32.209Z,7.40
2022-10-29T01:54:58.838Z,7.44
2022-10-29T01:57:25.293Z,7.43
2022-10-29T01:59:55.999Z,7.37
2022-10-29T02:02:30.985Z,7.32
2022-10-29T02:05:07.764Z,7.34
2022-10-29T02:08:36.219Z,7.26
2022-10-29T02:11:18.111Z,7.29
2022-10-29T02:13:50.120Z,7.19
2022-10-29T02:16:16.802Z,7.11
2022-10-29T02:18:47.392Z,7.11
2022-10-29T02:21:17.851Z,7.06
2022-10-29T02:23:44.444Z,7.09
2022-10-29T02:26:11.130Z,7.06
2022-10-29T02:28:37.826Z,7.04
2022-10-29T02:31:04.590Z,7.03
2022-10-29T02:33:31.293Z,7.14
2022-10-29T02:35:57.907Z,7.16
2022-10-29T02:38:24.568Z,7.24
2022-10-29T02:40:51.121Z,7.26
2022-10-29T02:43:20.730Z,7.24
2022-10-29T02:45:47.407Z,7.20
2022-10-29T02:48:14.008Z,7.13
2022-10-29T02:50:40.632Z,7.05
2022-10-29T02:53:07.640Z,7.06
2022-10-29T02:55:34.258Z,7.09
2022-10-29T02:58:00.848Z,7.09
2022-10-29T03:00:27.654Z,7.10
2022-10-29T03:02:54.664Z,7.05
2022-10-29T03:05:21.543Z,7.08
2022-10-29T03:07:48.113Z,7.14
2022-10-29T03:10:14.740Z,7.11
2022-10-29T03:12:41.373Z,7.09
2022-10-29T03:15:08.683Z,7.10
2022-10-29T03:17:35.375Z,7.20
2022-10-29T03:20:01.943Z,7.12
2022-10-29T03:22:28.545Z,7.22
2022-10-29T03:24:55.123Z,7.41
2022-10-29T03:27:21.658Z,7.42
2022-10-29T03:29:48.546Z,7.43
2022-10-29T03:32:15.243Z,7.34
2022-10-29T03:34:41.839Z,7.25
2022-10-29T03:37:08.446Z,7.29
2022-10-29T03:39:35.121Z,7.27
2022-10-29T03:42:01.761Z,7.23
2022-10-29T03:44:28.334Z,7.24
2022-10-29T03:46:54.940Z,7.33
2022-10-29T03:49:21.556Z,7.37
2022-10-29T03:51:48.187Z,7.35
2022-10-29T03:54:14.801Z,7.33
2022-10-29T03:56:41.446Z,7.25
2022-10-29T03:59:08.040Z,7.16
2022-10-29T04:01:34.838Z,7.09
2022-10-29T04:04:01.641Z,7.03
2022-10-29T04:06:28.503Z,7.05
2022-10-29T04:08:55.132Z,7.10
2022-10-29T04:11:21.683Z,7.13
2022-10-29T04:13:52.170Z,7.15
2022-10-29T04:16:18.721Z,7.14
2022-10-29T04:18:47.588Z,7.24
2022-10-29T04:29:33.898Z,7.14
2022-10-29T04:32:00.565Z,7.20
2022-10-29T04:34:28.272Z,7.17
2022-10-29T04:36:54.905Z,7.15
2022-10-29T04:39:23.385Z,7.15
2022-10-29T04:41:50.217Z,7.09
2022-10-29T04:44:16.938Z,7.09
2022-10-29T04:46:43.585Z,7.08
2022-10-29T04:49:14.443Z,6.92
2022-10-29T04:51:41.107Z,6.96
2022-10-29T04:54:07.672Z,7.05
2022-10-29T04:56:34.387Z,6.99
2022-10-29T04:59:00.998Z,7.05
2022-10-29T05:01:27.873Z,7.12
2022-10-29T05:03:58.853Z,7.14
2022-10-29T05:06:26.896Z,7.22
2022-10-29T05:08:53.515Z,7.23
2022-10-29T05:11:20.428Z,7.24
2022-10-29T05:13:47.178Z,7.29
2022-10-29T05:16:13.780Z,7.38
2022-10-29T05:18:40.433Z,7.33
2022-10-29T05:21:07.011Z,7.42
2022-10-29T05:23:33.642Z,7.30
2022-10-29T05:26:00.289Z,7.25
2022-10-29T05:28:26.943Z,7.32
2022-10-29T05:30:53.608Z,7.26
2022-10-29T05:33:22.192Z,7.27
2022-10-29T05:35:48.949Z,7.29
2022-10-29T05:38:15.647Z,7.32
2022-10-29T05:40:43.054Z,7.32
2022-10-29T05:43:09.798Z,7.39
2022-10-29T05:45:36.459Z,7.41
2022-10-29T05:48:03.964Z,7.36
2022-10-29T05:50:31.061Z,7.38
2022-10-29T05:52:58.901Z,7.46
2022-10-29T05:55:25.844Z,7.43
2022-10-29T05:57:58.265Z,7.43
2022-10-29T06:00:25.853Z,7.49
2022-10-29T06:02:52.660Z,7.46
2022-10-29T06:05:23.073Z,7.47
2022-10-29T06:07:59.293Z,7.41
2022-10-29T06:10:27.529Z,7.43
2022-10-29T06:12:54.326Z,7.30
2022-10-29T06:15:21.099Z,7.40
2022-10-29T06:17:47.834Z,7.50
2022-10-29T06:20:16.038Z,7.46
2022-10-29T06:22:42.705Z,7.51
2022-10-29T06:25:09.609Z,7.51
2022-10-29T06:27:36.578Z,7.52
2022-10-29T06:30:04.304Z,7.54
2022-10-29T06:32:31.036Z,7.58
2022-10-29T06:34:57.999Z,7.64
2022-10-29T06:37:24.949Z,7.81
2022-10-29T06:39:51.536Z,7.87
2022-10-29T06:42:19.968Z,7.90
2022-10-29T06:44:46.695Z,7.97
2022-10-29T06:47:14.586Z,8.02
2022-10-29T06:49:41.171Z,8.02
2022-10-29T06:52:07.759Z,8.05
2022-10-29T06:54:35.196Z,8.09
2022-10-29T06:57:01.791Z,8.11
2022-10-29T06:59:28.476Z,8.14
2022-10-29T07:01:55.190Z,8.16
2022-10-29T07:04:21.903Z,8.21
2022-10-29T07:06:48.573Z,8.20
2022-10-29T07:09:15.207Z,8.26
2022-10-29T07:11:41.804Z,8.28
2022-10-29T07:14:08.542Z,8.33
2022-10-29T07:16:35.904Z,8.42
2022-10-29T07:19:03.708Z,8.43
2022-10-29T07:21:30.350Z,8.38
2022-10-29T07:23:56.990Z,8.47
2022-10-29T07:26:23.571Z,8.50
2022-10-29T07:28:50.209Z,8.51
2022-10-29T07:31:16.828Z,8.66
2022-10-29T07:33:43.457Z,8.61
2022-10-29T07:36:10.099Z,8.67
2022-10-29T07:38:36.751Z,8.70
2022-10-29T07:41:03.441Z,8.74
2022-10-29T07:43:31.134Z,8.74
2022-10-29T07:45:57.739Z,8.81
2022-10-29T07:48:24.362Z,8.83
2022-10-29T07:50:51.060Z,8.90
2022-10-29T07:53:17.731Z,8.88
2022-10-29T07:55:44.491Z,8.91
2022-10-29T07:58:12.770Z,9.09
2022-10-29T08:00:40.358Z,9.16
2022-10-29T08:03:07.521Z,9.22
2022-10-29T08:05:34.199Z,9.28
2022-10-29T08:08:01.056Z,9.33
2022-10-29T08:10:28.020Z,9.42
2022-10-29T08:12:57.607Z,9.48
2022-10-29T08:15:24.793Z,9.54
2022-10-29T08:17:51.487Z,9.58
2022-10-29T08:20:18.263Z,9.69
2022-10-29T08:22:44.882Z,9.74
2022-10-29T08:25:11.549Z,9.80
2022-10-29T08:27:38.165Z,9.89
2022-10-29T08:30:10.668Z,9.98
2022-10-29T08:32:37.249Z,10.01
2022-10-29T08:35:04.034Z,10.14
2022-10-29T08:37:30.710Z,10.24
2022-10-29T08:39:57.457Z,10.25
2022-10-29T08:42:23.944Z,10.40
2022-10-29T08:45:08.452Z,10.41
2022-10-29T08:48:03.420Z,10.46
2022-10-29T08:50:31.107Z,10.43
2022-10-29T08:53:23.004Z,10.50
2022-10-29T08:55:44.490Z,10.57
2022-10-29T08:58:19.890Z,10.61
2022-10-29T09:00:46.515Z,10.70
2022-10-29T09:03:13.231Z,10.74
2022-10-29T09:05:58.529Z,10.74
2022-10-29T09:09:03.887Z,10.89
2022-10-29T09:11:53.947Z,10.98
2022-10-29T09:14:28.724Z,11.09
2022-10-29T09:17:23.092Z,11.16
2022-10-29T09:19:59.600Z,11.31
2022-10-29T09:22:36.436Z,11.52
2022-10-29T09:25:12.873Z,12.17
2022-10-29T09:28:08.287Z,12.91
2022-10-29T09:30:50.531Z,13.69
2022-10-29T09:33:18.492Z,14.34
2022-10-29T09:35:49.334Z,15.19
2022-10-29T09:38:34.998Z,15.92
2022-10-29T09:41:02.994Z,15.95
2022-10-29T09:43:49.920Z,15.59
2022-10-29T09:46:22.135Z,15.49
2022-10-29T09:51:55.180Z,16.81
2022-10-29T09:54:23.326Z,17.36
2022-10-29T09:56:54.867Z,17.80
2022-10-29T09:59:47.523Z,18.22
2022-10-29T10:02:50.850Z,18.66
2022-10-29T10:05:23.253Z,18.74
2022-10-29T10:08:06.410Z,18.52
2022-10-29T10:10:33.395Z,18.62
2022-10-29T10:13:04.152Z,18.85
2022-10-29T10:15:33.180Z,18.87
2022-10-29T10:18:26.974Z,18.80
2022-10-29T10:21:09.017Z,18.60
2022-10-29T10:23:42.870Z,18.76
2022-10-29T10:26:42.568Z,18.64
2022-10-29T10:29:19.085Z,18.95
2022-10-29T10:31:46.824Z,18.87
2022-10-29T10:34:21.351Z,18.41
2022-10-29T10:36:55.783Z,18.46
2022-10-29T10:39:34.704Z,18.55
2022-10-29T10:42:06.698Z,18.72
2022-10-29T10:44:33.367Z,18.52
2022-10-29T10:47:05.471Z,18.48
2022-10-29T10:49:35.882Z,18.42
2022-10-29T10:52:12.017Z,18.29
2022-10-29T10:54:39.711Z,18.07
2022-10-29T10:57:12.393Z,17.95
2022-10-29T11:00:05.149Z,17.95
2022-10-29T11:02:50.275Z,18.41
2022-10-29T11:05:24.582Z,18.34
2022-10-29T11:07:57.670Z,18.12
2022-10-29T11:10:33.546Z,18.23
2022-10-29T11:13:01.701Z,18.24
2022-10-29T11:15:47.342Z,18.14
2022-10-29T11:18:18.849Z,18.18
2022-10-29T11:20:49.514Z,18.61
2022-10-29T11:23:28.109Z,19.02
2022-10-29T11:26:10.149Z,19.11
2022-10-29T11:28:43.670Z,19.15
2022-10-29T11:31:36.600Z,19.09
2022-10-29T11:34:41.821Z,19.11
2022-10-29T11:37:29.688Z,19.08
2022-10-29T11:40:04.326Z,18.86
2022-10-29T11:42:31.153Z,18.67
2022-10-29T11:44:58.347Z,18.61
2022-10-29T11:47:46.761Z,18.65
2022-10-29T11:50:28.742Z,18.63
2022-10-29T11:53:01.308Z,18.65
2022-10-29T11:55:37.038Z,18.69
2022-10-29T11:58:23.447Z,18.74
2022-10-29T12:01:06.083Z,18.70
2022-10-29T12:06:43.696Z,18.56
2022-10-29T12:09:41.262Z,18.60
2022-10-29T12:12:12.124Z,18.54
2022-10-29T12:15:19.635Z,18.58
2022-10-29T12:18:03.772Z,18.61
2022-10-29T12:20:58.929Z,18.52
2022-10-29T12:23:44.372Z,18.46
2022-10-29T12:26:26.131Z,18.40
2022-10-29T12:29:03.187Z,18.43
2022-10-29T12:31:30.747Z,18.43
2022-10-29T12:34:01.749Z,18.38
2022-10-29T12:36:35.617Z,18.20
2022-10-29T12:39:02.291Z,18.26
2022-10-29T12:41:35.863Z,18.28
2022-10-29T12:44:13.881Z,18.25
2022-10-29T12:46:52.656Z,18.35
2022-10-29T12:49:22.208Z,18.28
2022-10-29T12:51:54.882Z,18.28
2022-10-29T12:54:23.432Z,18.14
2022-10-29T12:56:50.587Z,18.19
2022-10-29T12:59:37.408Z,18.16
2022-10-29T13:02:25.212Z,17.94
2022-10-29T13:05:07.174Z,17.87
2022-10-29T13:07:34.289Z,17.95
2022-10-29T13:10:22.643Z,18.05
2022-10-29T13:12:55.023Z,18.15
2022-10-29T13:16:20.676Z,18.11
2022-10-29T13:18:56.442Z,18.04
2022-10-29T13:22:01.992Z,17.97
2022-10-29T13:24:28.979Z,17.85
2022-10-29T13:26:57.360Z,17.85
2022-10-29T13:29:49.531Z,17.90
2022-10-29T13:32:32.886Z,17.90
2022-10-29T13:35:00.591Z,17.87
2022-10-29T13:37:37.105Z,17.85
2022-10-29T13:40:21.941Z,17.83
2022-10-29T13:42:57.286Z,17.84
2022-10-29T13:45:24.139Z,17.79
2022-10-29T13:47:50.766Z,17.80
2022-10-29T13:50:18.254Z,17.75
2022-10-29T13:52:46.018Z,17.62
2022-10-29T13:55:14.874Z,17.54
2022-10-29T13:58:01.936Z,17.43
2022-10-29T14:00:28.600Z,17.39
2022-10-29T14:03:07.808Z,17.38
2022-10-29T14:05:45.282Z,17.31
2022-10-29T14:08:15.300Z,17.28
2022-10-29T14:10:41.786Z,17.27
2022-10-29T14:13:19.232Z,17.28
2022-10-29T14:16:06.945Z,17.23
2022-10-29T14:18:35.496Z,17.23
2022-10-29T14:21:02.800Z,17.28
2022-10-29T14:23:30.050Z,17.33
2022-10-29T14:25:57.841Z,17.12
2022-10-29T14:28:25.839Z,17.06
2022-10-29T14:31:06.437Z,16.99
2022-10-29T14:33:34.728Z,16.97
2022-10-29T14:36:19.393Z,16.88
2022-10-29T14:38:57.519Z,16.87
2022-10-29T14:41:24.849Z,16.81
2022-10-29T14:44:19.276Z,16.85
2022-10-29T14:46:58.515Z,16.77
2022-10-29T14:49:25.224Z,16.76
2022-10-29T14:52:00.403Z,16.68
2022-10-29T14:54:28.379Z,16.63
2022-10-29T14:57:00.940Z,16.57
2022-10-29T14:59:29.419Z,16.46
2022-10-29T15:02:05.816Z,16.34
2022-10-29T15:04:56.396Z,16.25
2022-10-29T15:07:22.900Z,16.20
2022-10-29T15:09:50.324Z,16.12
2022-10-29T15:12:20.584Z,16.08
2022-10-29T15:14:49.433Z,15.88
2022-10-29T15:17:28.111Z,15.75
2022-10-29T15:19:57.594Z,15.68
2022-10-29T15:22:34.374Z,15.62
2022-10-29T15:25:02.217Z,15.60
2022-10-29T15:27:28.915Z,15.40
2022-10-29T15:29:55.591Z,15.13
2022-10-29T15:32:24.140Z,14.99
2022-10-29T15:34:57.125Z,14.85
2022-10-29T15:37:26.284Z,14.68
2022-10-29T15:39:55.755Z,14.41
2022-10-29T15:42:32.971Z,14.19
2022-10-29T15:47:43.732Z,13.99
2022-10-29T15:50:12.072Z,13.92
2022-10-29T15:52:43.518Z,13.79
2022-10-29T15:55:26.914Z,13.72
2022-10-29T15:57:55.459Z,13.65
2022-10-29T16:00:22.971Z,13.60
2022-10-29T16:02:50.046Z,13.60
2022-10-29T16:05:17.080Z,13.33
2022-10-29T16:07:43.756Z,13.17
2022-10-29T16:10:18.832Z,13.18
2022-10-29T16:12:45.651Z,13.13
2022-10-29T16:15:17.086Z,13.15
2022-10-29T16:17:43.779Z,13.08
2022-10-29T16:20:15.265Z,13.05
2022-10-29T16:22:41.939Z,12.89
2022-10-29T16:25:22.999Z,12.87
2022-10-29T16:27:49.914Z,12.81
2022-10-29T16:30:16.730Z,12.86
2022-10-29T16:32:43.840Z,12.81
2022-10-29T16:35:28.030Z,12.72
2022-10-29T16:37:55.090Z,12.64
2022-10-29T16:40:23.992Z,12.59
2022-10-29T16:42:50.700Z,12.52
2022-10-29T16:45:19.929Z,12.48
2022-10-29T16:47:46.693Z,12.39
2022-10-29T16:50:27.354Z,12.34
2022-10-29T16:53:03.475Z,12.33
2022-10-29T16:55:30.222Z,12.28
2022-10-29T16:57:57.234Z,12.23
2022-10-29T17:00:24.895Z,12.20
2022-10-29T17:02:51.639Z,12.10
2022-10-29T17:05:18.404Z,12.08
2022-10-29T17:07:44.996Z,12.06
2022-10-29T17:10:11.682Z,12.08
2022-10-29T17:12:38.383Z,12.14
2022-10-29T17:15:05.538Z,12.08
2022-10-29T17:17:32.187Z,12.03
2022-10-29T17:19:58.823Z,11.95
2022-10-29T17:22:25.544Z,11.96
2022-10-29T17:24:52.265Z,11.93
2022-10-29T17:27:18.990Z,11.95
2022-10-29T17:29:45.664Z,11.89
2022-10-29T17:32:12.334Z,11.85
2022-10-29T17:34:38.988Z,11.83
2022-10-29T17:37:05.627Z,11.78
2022-10-29T17:39:32.430Z,11.68
2022-10-29T17:41:59.371Z,11.50
2022-10-29T17:44:26.731Z,11.42
2022-10-29T17:46:53.971Z,11.39
2022-10-29T17:49:21.105Z,11.22
2022-10-29T17:51:47.808Z,11.11
2022-10-29T17:54:17.195Z,11.13
2022-10-29T17:56:43.890Z,11.10
2022-10-29T17:59:10.573Z,11.03
2022-10-29T18:01:37.311Z,10.95
2022-10-29T18:04:04.859Z,10.92
2022-10-29T18:06:31.593Z,10.89
2022-10-29T18:08:59.251Z,10.77
2022-10-29T18:11:25.929Z,10.77
2022-10-29T18:13:52.880Z,10.66
2022-10-29T18:16:24.392Z,10.53
2022-10-29T18:19:01.604Z,10.30
2022-10-29T18:21:29.560Z,10.36
2022-10-29T18:23:56.210Z,10.28
2022-10-29T18:26:25.953Z,10.15
2022-10-29T18:28:53.526Z,10.06
2022-10-29T18:31:20.447Z,10.05
2022-10-29T18:33:47.223Z,10.02
2022-10-29T18:36:14.108Z,9.95
2022-10-29T18:38:41.894Z,9.86
2022-10-29T18:41:08.571Z,9.78
2022-10-29T18:43:35.396Z,9.69
2022-10-29T18:46:03.958Z,9.55
2022-10-29T18:51:04.293Z,9.44
2022-10-29T18:53:31.503Z,9.38
2022-10-29T18:55:58.264Z,9.39
2022-10-29T18:58:25.078Z,9.34
2022-10-29T19:00:51.716Z,9.33
2022-10-29T19:03:18.459Z,9.26
2022-10-29T19:05:45.171Z,9.20
2022-10-29T19:08:12.588Z,9.15
2022-10-29T19:10:41.366Z,9.04
2022-10-29T19:13:08.151Z,8.98
2022-10-29T19:15:35.748Z,8.99
2022-10-29T19:18:02.631Z,8.94
2022-10-29T19:20:30.280Z,8.88
2022-10-29T19:22:57.659Z,8.88
2022-10-29T19:25:24.946Z,8.82
2022-10-29T19:27:51.927Z,8.81
2022-10-29T19:30:18.675Z,8.82
2022-10-29T19:32:45.401Z,8.88
2022-10-29T19:35:12.081Z,8.86
2022-10-29T19:37:38.676Z,8.87
2022-10-29T19:40:06.280Z,8.68
2022-10-29T19:42:32.916Z,8.63
2022-10-29T19:44:59.491Z,8.58
2022-10-29T19:47:26.069Z,8.59
2022-10-29T19:49:53.020Z,8.75
2022-10-29T19:52:19.637Z,8.70
2022-10-29T19:54:46.294Z,8.75
2022-10-29T19:57:12.894Z,8.74
2022-10-29T19:59:39.558Z,8.68
2022-10-29T20:02:09.145Z,8.63
2022-10-29T20:04:35.860Z,8.65
2022-10-29T20:07:02.645Z,8.71
2022-10-29T20:09:29.306Z,8.76
2022-10-29T20:11:55.938Z,8.80
2022-10-29T20:14:27.953Z,8.78
2022-10-29T20:16:55.537Z,8.86
2022-10-29T20:19:22.225Z,8.84
2022-10-29T20:21:48.868Z,8.79
2022-10-29T20:24:15.447Z,8.82
2022-10-29T20:26:42.117Z,8.75
2022-10-29T20:29:08.810Z,8.68
2022-10-29T20:31:40.088Z,8.65
2022-10-29T20:34:08.271Z,8.59
2022-10-29T20:36:35.031Z,8.65
2022-10-29T20:39:01.749Z,8.62
2022-10-29T20:41:28.663Z,8.66
2022-10-29T20:43:56.814Z,8.65
2022-10-29T20:46:23.647Z,8.74
2022-10-29T20:48:50.275Z,8.74
2022-10-29T20:51:16.887Z,8.73
2022-10-29T20:53:44.057Z,8.64
2022-10-29T20:56:13.309Z,8.63
2022-10-29T20:58:42.823Z,8.68
2022-10-29T21:01:11.253Z,8.70
2022-10-29T21:03:37.967Z,8.75
2022-10-29T21:06:05.457Z,8.71
2022-10-29T21:08:32.246Z,8.76
2022-10-29T21:11:03.443Z,8.76
2022-10-29T21:13:30.130Z,8.80
2022-10-29T21:15:56.808Z,8.79
2022-10-29T21:18:23.888Z,8.78
2022-10-29T21:20:50.622Z,8.84
2022-10-29T21:23:21.303Z,8.92
2022-10-29T21:25:53.588Z,8.87
2022-10-29T21:28:20.411Z,8.97
2022-10-29T21:30:47.141Z,8.93
2022-10-29T21:33:13.839Z,8.90
2022-10-29T21:35:40.815Z,8.86
2022-10-29T21:38:07.470Z,8.79
2022-10-29T21:40:34.480Z,8.76
2022-10-29T21:43:01.131Z,8.79
2022-10-29T21:45:27.817Z,8.83
2022-10-29T21:47:54.420Z,8.86
2022-10-29T21:50:21.189Z,8.78
2022-10-29T21:52:47.855Z,8.79
2022-10-29T21:55:14.547Z,8.83
2022-10-29T21:57:44.222Z,8.81
2022-10-29T22:00:12.386Z,8.74
2022-10-29T22:02:39.174Z,8.70
2022-10-29T22:05:06.094Z,8.73
2022-10-29T22:07:32.777Z,8.78
2022-10-29T22:09:59.443Z,8.80
2022-10-29T22:12:26.027Z,8.77
2022-10-29T22:14:52.684Z,8.77
2022-10-29T22:17:19.396Z,8.72
2022-10-29T22:19:46.048Z,8.73
2022-10-29T22:22:12.768Z,8.72
2022-10-29T22:24:39.441Z,8.73
2022-10-29T22:27:06.082Z,8.68
2022-10-29T22:29:32.710Z,8.71
2022-10-29T22:31:59.339Z,8.82
2022-10-29T22:34:25.949Z,8.94
2022-10-29T22:36:52.801Z,9.04
2022-10-29T22:39:19.432Z,8.95
2022-10-29T22:41:46.032Z,8.86
2022-10-29T22:44:12.694Z,8.81
2022-10-29T22:46:39.308Z,8.84
2022-10-29T22:49:06.011Z,8.76
2022-10-29T22:51:32.931Z,8.81
2022-10-29T22:53:59.740Z,8.77
2022-10-29T22:56:28.279Z,8.71
2022-10-29T22:58:55.228Z,8.72
2022-10-29T23:01:23.808Z,8.74
2022-10-29T23:03:50.735Z,8.81
2022-10-29T23:06:18.992Z,8.87
2022-10-29T23:08:45.695Z,8.80
2022-10-29T23:11:13.122Z,8.72
2022-10-29T23:13:39.762Z,8.76
2022-10-29T23:16:06.981Z,8.72
2022-10-29T23:18:33.688Z,8.74
2022-10-29T23:21:01.379Z,8.80
2022-10-29T23:23:27.954Z,8.97
2022-10-29T23:25:54.652Z,8.90
2022-10-29T23:28:21.296Z,8.80
2022-10-29T23:30:53.282Z,8.76
2022-10-29T23:33:19.984Z,8.75
2022-10-29T23:35:46.709Z,8.76
2022-10-29T23:38:13.308Z,8.68
2022-10-29T23:40:40.028Z,8.70
2022-10-29T23:43:06.636Z,8.72
2022-10-29T23:45:33.231Z,8.71
2022-10-29T23:48:00.196Z,8.78
2022-10-29T23:50:27.053Z,8.82
2022-10-29T23:52:53.679Z,8.74
2022-10-29T23:55:20.304Z,8.69
2022-10-29T23:57:46.968Z,8.70
